createdAt,value
2017-07-30T00:01:47.657Z,10.53
2017-07-30T00:04:15.114Z,9.20
2017-07-30T00:06:42.594Z,10.03
2017-07-30T00:09:10.050Z,11.63
2017-07-30T00:11:37.506Z,10.80
2017-07-30T00:14:04.984Z,10.87
2017-07-30T00:16:32.442Z,11.27
2017-07-30T00:18:59.935Z,11.40
2017-07-30T00:21:27.394Z,10.60
2017-07-30T00:23:54.846Z,9.97
2017-07-30T00:26:22.330Z,10.73
2017-07-30T00:28:49.861Z,10.40
2017-07-30T00:31:17.369Z,10.20
2017-07-30T00:33:45.661Z,10.40
2017-07-30T00:36:13.118Z,10.60
2017-07-30T00:38:40.578Z,10.37
2017-07-30T00:41:08.074Z,10.10
2017-07-30T00:43:35.521Z,11.10
2017-07-30T00:46:02.970Z,10.40
2017-07-30T00:48:30.456Z,8.90
2017-07-30T00:50:57.915Z,10.17
2017-07-30T00:53:25.361Z,9.40
2017-07-30T00:55:52.863Z,10.30
2017-07-30T00:58:20.322Z,9.77
2017-07-30T01:00:47.774Z,9.30
2017-07-30T01:03:15.252Z,8.67
2017-07-30T01:05:42.721Z,9.10
2017-07-30T01:08:10.207Z,8.70
2017-07-30T01:10:37.662Z,8.17
2017-07-30T01:13:05.118Z,7.93
2017-07-30T01:15:32.618Z,8.10
2017-07-30T01:18:00.068Z,9.00
2017-07-30T01:20:27.514Z,9.77
2017-07-30T01:22:55.001Z,8.10
2017-07-30T01:25:22.458Z,9.00
2017-07-30T01:27:49.921Z,8.47
2017-07-30T01:30:18.177Z,7.50
2017-07-30T01:32:45.625Z,7.60
2017-07-30T01:35:13.098Z,7.67
2017-07-30T01:37:40.589Z,7.87
2017-07-30T01:40:08.788Z,7.70
2017-07-30T01:42:36.241Z,7.80
2017-07-30T01:45:03.718Z,8.13
2017-07-30T01:47:31.182Z,8.40
2017-07-30T01:49:58.776Z,8.63
2017-07-30T01:52:26.226Z,8.17
2017-07-30T01:54:53.686Z,7.50
2017-07-30T01:57:21.167Z,8.07
2017-07-30T01:59:48.621Z,7.33
2017-07-30T02:02:16.100Z,7.83
2017-07-30T02:04:43.555Z,7.67
2017-07-30T02:07:11.038Z,7.97
2017-07-30T02:09:38.534Z,7.93
2017-07-30T02:12:05.991Z,8.60
2017-07-30T02:14:33.471Z,7.80
2017-07-30T02:17:01.728Z,8.07
2017-07-30T02:19:29.254Z,8.20
2017-07-30T02:21:56.706Z,8.13
2017-07-30T02:24:24.205Z,8.67
2017-07-30T02:26:51.657Z,7.97
2017-07-30T02:29:19.120Z,7.37
2017-07-30T02:31:46.630Z,9.10
2017-07-30T02:34:14.078Z,7.70
2017-07-30T02:36:41.529Z,8.33
2017-07-30T02:39:09.002Z,9.37
2017-07-30T02:41:36.477Z,8.30
2017-07-30T02:44:03.949Z,7.53
2017-07-30T02:46:31.408Z,7.33
2017-07-30T02:48:58.974Z,6.90
2017-07-30T02:51:26.440Z,6.27
2017-07-30T02:53:53.906Z,5.60
2017-07-30T02:56:21.384Z,5.40
2017-07-30T02:58:48.837Z,5.83
2017-07-30T03:01:16.297Z,5.30
2017-07-30T03:03:43.775Z,5.50
2017-07-30T03:06:11.245Z,4.77
2017-07-30T03:08:38.713Z,5.00
2017-07-30T03:11:06.188Z,4.50
2017-07-30T03:13:33.637Z,4.37
2017-07-30T03:16:01.081Z,3.97
2017-07-30T03:18:28.561Z,3.93
2017-07-30T03:20:56.013Z,3.80
2017-07-30T03:23:23.506Z,3.67
2017-07-30T03:25:50.962Z,3.87
2017-07-30T03:28:18.410Z,3.80
2017-07-30T03:30:45.911Z,4.27
2017-07-30T03:33:13.370Z,4.83
2017-07-30T03:35:40.822Z,4.47
2017-07-30T03:38:08.304Z,5.07
2017-07-30T03:40:35.753Z,4.10
2017-07-30T03:43:03.198Z,4.60
2017-07-30T03:45:30.685Z,4.53
2017-07-30T03:47:58.134Z,5.10
2017-07-30T03:50:25.587Z,5.77
2017-07-30T03:52:53.053Z,5.60
2017-07-30T03:55:20.541Z,6.57
2017-07-30T03:57:47.989Z,7.27
2017-07-30T04:00:15.442Z,7.00
2017-07-30T04:02:42.946Z,6.27
2017-07-30T04:05:10.481Z,6.00
2017-07-30T04:07:37.929Z,5.73
2017-07-30T04:10:05.409Z,6.20
2017-07-30T04:12:32.866Z,4.97
2017-07-30T04:15:00.342Z,5.20
2017-07-30T04:17:27.798Z,4.53
2017-07-30T04:19:55.241Z,4.87
2017-07-30T04:22:22.723Z,4.13
2017-07-30T04:24:50.174Z,4.37
2017-07-30T04:27:17.689Z,3.30
2017-07-30T04:29:45.322Z,3.63
2017-07-30T04:32:12.785Z,3.30
2017-07-30T04:34:40.266Z,3.30
2017-07-30T04:37:07.723Z,3.83
2017-07-30T04:39:35.262Z,3.00
2017-07-30T04:42:02.739Z,3.57
2017-07-30T04:44:30.210Z,3.23
2017-07-30T04:46:57.661Z,3.33
2017-07-30T04:49:25.137Z,3.40
2017-07-30T04:51:52.594Z,2.97
2017-07-30T04:54:20.064Z,3.03
2017-07-30T04:56:47.546Z,3.30
2017-07-30T04:59:14.993Z,3.77
2017-07-30T05:01:42.476Z,3.50
2017-07-30T05:04:09.933Z,2.83
2017-07-30T05:06:37.369Z,2.60
2017-07-30T05:09:04.853Z,3.33
2017-07-30T05:11:32.302Z,2.90
2017-07-30T05:13:59.762Z,2.40
2017-07-30T05:16:27.246Z,3.10
2017-07-30T05:18:54.689Z,2.97
2017-07-30T05:21:22.149Z,3.67
2017-07-30T05:23:49.630Z,3.07
2017-07-30T05:26:17.073Z,3.33
2017-07-30T05:28:44.522Z,3.43
2017-07-30T05:31:12.009Z,3.30
2017-07-30T05:33:39.466Z,3.83
2017-07-30T05:36:07.131Z,3.40
2017-07-30T05:38:34.892Z,3.20
2017-07-30T05:41:02.589Z,3.10
2017-07-30T05:43:30.250Z,5.80
2017-07-30T05:45:57.733Z,2.57
2017-07-30T05:48:25.433Z,3.33
2017-07-30T05:50:53.212Z,3.80
2017-07-30T05:53:20.697Z,3.30
2017-07-30T05:55:48.469Z,2.80
2017-07-30T05:58:15.910Z,3.20
2017-07-30T06:00:43.606Z,3.57
2017-07-30T06:03:11.062Z,4.07
2017-07-30T06:05:38.565Z,3.30
2017-07-30T06:08:06.093Z,3.80
2017-07-30T06:10:33.626Z,3.73
2017-07-30T06:13:01.130Z,3.77
2017-07-30T06:15:28.601Z,3.30
2017-07-30T06:17:56.116Z,3.20
2017-07-30T06:20:23.750Z,3.97
2017-07-30T06:22:51.246Z,3.17
2017-07-30T06:25:18.749Z,3.53
2017-07-30T06:27:46.269Z,3.40
2017-07-30T06:30:13.777Z,3.17
2017-07-30T06:32:41.257Z,3.83
2017-07-30T06:35:09.702Z,4.63
2017-07-30T06:37:37.178Z,3.20
2017-07-30T06:40:04.649Z,3.13
2017-07-30T06:42:32.158Z,3.30
2017-07-30T06:44:59.602Z,3.90
2017-07-30T06:47:27.049Z,3.40
2017-07-30T06:49:54.517Z,3.37
2017-07-30T06:52:22.015Z,3.33
2017-07-30T06:54:49.748Z,2.90
2017-07-30T06:57:17.371Z,2.83
2017-07-30T06:59:44.869Z,2.80
2017-07-30T07:02:12.347Z,2.00
2017-07-30T07:04:39.813Z,2.73
2017-07-30T07:07:07.286Z,2.67
2017-07-30T07:09:34.773Z,2.60
2017-07-30T07:12:02.239Z,2.90
2017-07-30T07:14:29.725Z,2.03
2017-07-30T07:16:57.206Z,3.17
2017-07-30T07:19:24.659Z,2.60
2017-07-30T07:21:52.154Z,2.90
2017-07-30T07:24:19.596Z,2.53
2017-07-30T07:26:47.044Z,3.10
2017-07-30T07:29:14.523Z,2.67
2017-07-30T07:31:41.971Z,2.60
2017-07-30T07:34:09.677Z,2.57
2017-07-30T07:36:37.132Z,2.60
2017-07-30T07:39:04.587Z,2.50
2017-07-30T07:41:32.065Z,2.90
2017-07-30T07:43:59.522Z,2.43
2017-07-30T07:46:26.980Z,2.80
2017-07-30T07:48:54.492Z,2.80
2017-07-30T07:51:21.979Z,3.00
2017-07-30T07:53:49.730Z,2.93
2017-07-30T07:56:17.402Z,2.40
2017-07-30T07:58:44.902Z,2.30
2017-07-30T08:01:12.373Z,2.50
2017-07-30T08:03:40.001Z,1.97
2017-07-30T08:06:07.581Z,2.67
2017-07-30T08:08:35.112Z,2.80
2017-07-30T08:11:02.627Z,2.63
2017-07-30T08:13:30.187Z,2.70
2017-07-30T08:15:57.782Z,2.80
2017-07-30T08:18:25.355Z,2.20
2017-07-30T08:20:53.065Z,2.20
2017-07-30T08:23:20.636Z,2.67
2017-07-30T08:25:48.205Z,2.53
2017-07-30T08:28:15.696Z,3.30
2017-07-30T08:30:43.133Z,2.97
2017-07-30T08:33:10.628Z,2.60
2017-07-30T08:35:38.147Z,2.80
2017-07-30T08:38:05.609Z,2.50
2017-07-30T08:40:33.062Z,2.57
2017-07-30T08:43:00.550Z,2.60
2017-07-30T08:45:28.493Z,2.73
2017-07-30T08:47:56.147Z,2.87
2017-07-30T08:50:23.859Z,2.70
2017-07-30T08:52:51.654Z,2.83
2017-07-30T08:55:19.537Z,2.60
2017-07-30T08:57:47.065Z,2.77
2017-07-30T09:00:14.788Z,2.53
2017-07-30T09:02:42.295Z,2.80
2017-07-30T09:05:10.094Z,2.77
2017-07-30T09:07:37.666Z,2.63
2017-07-30T09:10:05.172Z,2.93
2017-07-30T09:12:32.717Z,3.07
2017-07-30T09:15:00.331Z,2.37
2017-07-30T09:17:28.043Z,2.93
2017-07-30T09:19:55.791Z,3.20
2017-07-30T09:22:23.366Z,2.80
2017-07-30T09:24:50.908Z,2.93
2017-07-30T09:27:18.515Z,4.03
2017-07-30T09:29:46.134Z,2.80
2017-07-30T09:32:13.775Z,2.40
2017-07-30T09:34:41.263Z,2.57
2017-07-30T09:37:08.810Z,3.13
2017-07-30T09:39:36.387Z,2.60
2017-07-30T09:42:03.854Z,2.40
2017-07-30T09:44:31.389Z,1.80
2017-07-30T09:46:58.965Z,1.47
2017-07-30T09:49:26.469Z,2.53
2017-07-30T09:51:53.949Z,2.00
2017-07-30T09:54:21.524Z,2.30
2017-07-30T09:56:48.990Z,1.80
2017-07-30T09:59:16.537Z,1.37
2017-07-30T10:01:44.023Z,2.17
2017-07-30T10:04:11.555Z,2.00
2017-07-30T10:06:39.010Z,1.73
2017-07-30T10:09:06.968Z,2.27
2017-07-30T10:11:34.713Z,2.70
2017-07-30T10:14:02.524Z,2.13
2017-07-30T10:16:29.969Z,2.50
2017-07-30T10:18:57.654Z,1.90
2017-07-30T10:21:25.384Z,2.27
2017-07-30T10:23:53.010Z,1.93
2017-07-30T10:26:20.702Z,2.20
2017-07-30T10:28:48.468Z,1.80
2017-07-30T10:31:16.086Z,2.00
2017-07-30T10:33:43.537Z,2.00
2017-07-30T10:36:11.260Z,2.17
2017-07-30T10:38:38.709Z,1.87
2017-07-30T10:41:06.228Z,2.07
2017-07-30T10:43:33.682Z,1.60
2017-07-30T10:46:01.130Z,1.70
2017-07-30T10:48:28.605Z,1.50
2017-07-30T10:50:56.079Z,1.87
2017-07-30T10:53:23.526Z,2.03
2017-07-30T10:55:51.022Z,2.07
2017-07-30T10:58:18.494Z,1.83
2017-07-30T11:00:45.966Z,1.90
2017-07-30T11:03:13.454Z,1.50
2017-07-30T11:05:40.926Z,1.93
2017-07-30T11:08:08.361Z,1.73
2017-07-30T11:10:35.852Z,1.17
2017-07-30T11:13:03.308Z,2.00
2017-07-30T11:15:30.797Z,1.90
2017-07-30T11:17:58.274Z,2.03
2017-07-30T11:20:25.718Z,1.67
2017-07-30T11:22:53.201Z,1.47
2017-07-30T11:25:20.709Z,1.63
2017-07-30T11:27:48.190Z,1.50
2017-07-30T11:30:15.753Z,1.10
2017-07-30T11:32:43.282Z,1.40
2017-07-30T11:35:10.801Z,1.50
2017-07-30T11:37:38.273Z,0.93
2017-07-30T11:40:05.879Z,2.33
2017-07-30T11:42:33.401Z,2.07
2017-07-30T11:45:00.858Z,2.30
2017-07-30T11:47:28.346Z,2.60
2017-07-30T11:49:55.814Z,2.17
2017-07-30T11:52:23.292Z,2.07
2017-07-30T11:54:50.770Z,2.00
2017-07-30T11:57:18.226Z,1.60
2017-07-30T11:59:45.678Z,1.43
2017-07-30T12:02:13.189Z,1.30
2017-07-30T12:04:40.670Z,1.57
2017-07-30T12:07:08.149Z,1.50
2017-07-30T12:09:35.666Z,1.90
2017-07-30T12:12:03.142Z,1.70
2017-07-30T12:14:30.626Z,1.30
2017-07-30T12:16:58.109Z,1.30
2017-07-30T12:19:25.620Z,1.30
2017-07-30T12:21:53.110Z,1.30
2017-07-30T12:24:20.664Z,1.37
2017-07-30T12:26:48.137Z,1.40
2017-07-30T12:29:15.621Z,1.43
2017-07-30T12:31:43.096Z,1.60
2017-07-30T12:34:10.537Z,1.50
2017-07-30T12:36:38.119Z,1.43
2017-07-30T12:39:05.573Z,1.80
2017-07-30T12:41:33.049Z,1.40
2017-07-30T12:44:00.526Z,1.77
2017-07-30T12:46:27.993Z,1.60
2017-07-30T12:48:55.454Z,1.00
2017-07-30T12:51:22.950Z,1.10
2017-07-30T12:53:50.415Z,1.00
2017-07-30T12:56:17.900Z,1.40
2017-07-30T12:58:45.353Z,1.30
2017-07-30T13:01:13.599Z,1.03
2017-07-30T13:03:41.083Z,1.10
2017-07-30T13:06:08.566Z,1.07
2017-07-30T13:08:36.060Z,0.90
2017-07-30T13:11:03.565Z,0.80
2017-07-30T13:13:31.065Z,0.90
2017-07-30T13:15:58.567Z,0.90
2017-07-30T13:18:26.057Z,1.00
2017-07-30T13:20:53.504Z,0.50
2017-07-30T13:23:20.953Z,1.10
2017-07-30T13:25:49.200Z,1.10
2017-07-30T13:28:16.791Z,1.07
2017-07-30T13:30:44.274Z,0.90
2017-07-30T13:33:11.730Z,1.17
2017-07-30T13:35:39.193Z,1.00
2017-07-30T13:38:06.681Z,0.90
2017-07-30T13:40:34.154Z,0.70
2017-07-30T13:43:01.610Z,1.20
2017-07-30T13:45:29.089Z,1.30
2017-07-30T13:47:56.569Z,1.30
2017-07-30T13:50:24.029Z,1.30
2017-07-30T13:52:51.473Z,1.97
2017-07-30T13:55:18.970Z,1.23
2017-07-30T13:57:46.430Z,1.50
2017-07-30T14:00:13.887Z,1.67
2017-07-30T14:02:41.370Z,1.40
2017-07-30T14:05:08.862Z,1.20
2017-07-30T14:07:37.102Z,0.93
2017-07-30T14:10:04.548Z,2.00
2017-07-30T14:12:32.021Z,1.33
2017-07-30T14:14:59.465Z,1.37
2017-07-30T14:17:26.914Z,1.57
2017-07-30T14:19:54.417Z,1.13
2017-07-30T14:22:21.887Z,1.10
2017-07-30T14:24:50.101Z,1.00
2017-07-30T14:27:17.586Z,1.43
2017-07-30T14:29:45.128Z,1.40
2017-07-30T14:32:12.575Z,1.00
2017-07-30T14:34:40.067Z,1.20
2017-07-30T14:37:07.522Z,1.10
2017-07-30T14:39:34.981Z,1.13
2017-07-30T14:42:02.485Z,1.20
2017-07-30T14:44:29.933Z,1.30
2017-07-30T14:46:57.389Z,0.83
2017-07-30T14:49:25.057Z,1.20
2017-07-30T14:51:52.749Z,1.50
2017-07-30T14:54:20.427Z,1.60
2017-07-30T14:56:47.927Z,1.40
2017-07-30T14:59:15.470Z,2.40
2017-07-30T15:01:42.939Z,1.53
2017-07-30T15:04:10.386Z,1.40
2017-07-30T15:06:37.867Z,1.60
2017-07-30T15:09:05.324Z,1.30
2017-07-30T15:11:32.814Z,1.47
2017-07-30T15:14:00.269Z,2.50
2017-07-30T15:16:27.726Z,1.33
2017-07-30T15:18:55.226Z,1.37
2017-07-30T15:21:22.689Z,1.30
2017-07-30T15:23:50.223Z,1.20
2017-07-30T15:26:17.723Z,1.50
2017-07-30T15:28:45.179Z,1.53
2017-07-30T15:31:12.662Z,1.40
2017-07-30T15:33:40.118Z,1.30
2017-07-30T15:36:07.578Z,1.87
2017-07-30T15:38:35.066Z,0.90
2017-07-30T15:41:02.518Z,1.30
2017-07-30T15:43:29.981Z,1.67
2017-07-30T15:45:57.453Z,1.63
2017-07-30T15:48:24.995Z,1.43
2017-07-30T15:50:52.518Z,1.60
2017-07-30T15:53:20.416Z,1.30
2017-07-30T15:55:48.136Z,1.27
2017-07-30T15:58:15.677Z,1.60
2017-07-30T16:00:43.289Z,1.50
2017-07-30T16:03:11.557Z,1.10
2017-07-30T16:05:39.663Z,1.80
2017-07-30T16:08:07.189Z,1.80
2017-07-30T16:10:34.757Z,1.23
2017-07-30T16:13:02.971Z,0.93
2017-07-30T16:15:30.492Z,1.47
2017-07-30T16:17:58.737Z,1.27
2017-07-30T16:20:26.298Z,1.20
2017-07-30T16:22:53.841Z,1.40
2017-07-30T16:25:21.321Z,1.47
2017-07-30T16:27:49.023Z,1.57
2017-07-30T16:30:16.490Z,1.03
2017-07-30T16:32:43.960Z,1.17
2017-07-30T16:35:11.520Z,1.07
2017-07-30T16:37:38.981Z,1.13
2017-07-30T16:40:06.576Z,1.27
2017-07-30T16:42:34.065Z,1.30
2017-07-30T16:45:02.299Z,1.13
2017-07-30T16:47:29.913Z,1.30
2017-07-30T16:49:57.489Z,1.30
2017-07-30T16:52:25.194Z,1.00
2017-07-30T16:54:53.489Z,1.00
2017-07-30T16:57:21.105Z,0.90
2017-07-30T16:59:48.667Z,0.90
2017-07-30T17:02:16.578Z,1.40
2017-07-30T17:04:44.113Z,1.40
2017-07-30T17:07:12.986Z,1.00
2017-07-30T17:09:40.614Z,1.43
2017-07-30T17:12:08.565Z,1.20
2017-07-30T17:14:36.139Z,1.60
2017-07-30T17:17:03.714Z,1.23
2017-07-30T17:19:31.226Z,0.90
2017-07-30T17:21:58.679Z,1.20
2017-07-30T17:24:26.125Z,1.07
2017-07-30T17:26:53.613Z,0.90
2017-07-30T17:29:21.065Z,1.30
2017-07-30T17:31:48.525Z,1.23
2017-07-30T17:34:16.017Z,1.10
2017-07-30T17:36:43.534Z,1.50
2017-07-30T17:39:10.993Z,0.90
2017-07-30T17:41:38.456Z,1.77
2017-07-30T17:44:05.965Z,1.80
2017-07-30T17:46:33.432Z,1.00
2017-07-30T17:49:00.909Z,1.20
2017-07-30T17:51:28.398Z,1.03
2017-07-30T17:53:55.866Z,1.40
2017-07-30T17:56:23.390Z,1.20
2017-07-30T17:58:50.945Z,1.40
2017-07-30T18:01:18.390Z,0.90
2017-07-30T18:03:46.677Z,1.20
2017-07-30T18:06:14.962Z,0.83
2017-07-30T18:08:42.436Z,1.20
2017-07-30T18:11:09.922Z,1.10
2017-07-30T18:13:37.396Z,0.90
2017-07-30T18:16:04.860Z,1.13
2017-07-30T18:18:32.422Z,1.00
2017-07-30T18:20:59.949Z,1.00
2017-07-30T18:23:27.402Z,1.07
2017-07-30T18:25:54.849Z,0.80
2017-07-30T18:28:22.332Z,1.67
2017-07-30T18:30:49.834Z,1.00
2017-07-30T18:33:17.285Z,1.40
2017-07-30T18:35:44.813Z,1.10
2017-07-30T18:38:12.266Z,1.30
2017-07-30T18:40:39.796Z,1.03
2017-07-30T18:43:07.274Z,1.10
2017-07-30T18:45:34.773Z,1.30
2017-07-30T18:48:02.286Z,1.30
2017-07-30T18:50:29.981Z,1.40
2017-07-30T18:52:57.505Z,1.20
2017-07-30T18:55:24.981Z,1.40
2017-07-30T18:57:52.474Z,1.40
2017-07-30T19:00:19.970Z,1.37
2017-07-30T19:02:47.440Z,1.40
2017-07-30T19:05:14.920Z,1.50
2017-07-30T19:07:42.374Z,1.40
2017-07-30T19:10:10.049Z,1.20
2017-07-30T19:12:37.493Z,1.60
2017-07-30T19:15:04.949Z,1.83
2017-07-30T19:17:32.469Z,1.50
2017-07-30T19:19:59.923Z,1.87
2017-07-30T19:22:27.380Z,1.20
2017-07-30T19:24:54.870Z,1.47
2017-07-30T19:27:22.326Z,1.40
2017-07-30T19:29:49.801Z,1.23
2017-07-30T19:32:17.274Z,1.30
2017-07-30T19:34:44.734Z,1.30
2017-07-30T19:37:12.233Z,1.50
2017-07-30T19:39:39.901Z,1.87
2017-07-30T19:42:07.349Z,1.97
2017-07-30T19:44:34.800Z,1.83
2017-07-30T19:47:02.335Z,2.23
2017-07-30T19:49:29.780Z,2.40
2017-07-30T19:51:57.596Z,2.20
2017-07-30T19:54:25.148Z,2.13
2017-07-30T19:56:52.637Z,2.17
2017-07-30T19:59:20.158Z,2.10
2017-07-30T20:01:47.705Z,1.70
2017-07-30T20:04:15.190Z,2.70
2017-07-30T20:06:42.706Z,3.73
2017-07-30T20:09:10.225Z,2.60
2017-07-30T20:11:37.743Z,1.60
2017-07-30T20:14:05.206Z,2.70
2017-07-30T20:16:32.692Z,1.67
2017-07-30T20:19:00.179Z,1.27
2017-07-30T20:21:27.628Z,2.10
2017-07-30T20:23:55.093Z,1.60
2017-07-30T20:26:22.578Z,1.33
2017-07-30T20:28:50.046Z,1.63
2017-07-30T20:31:17.513Z,2.20
2017-07-30T20:33:45.048Z,3.50
2017-07-30T20:36:12.499Z,2.60
2017-07-30T20:38:40.801Z,3.20
2017-07-30T20:41:08.286Z,2.50
2017-07-30T20:43:35.737Z,2.73
2017-07-30T20:46:03.186Z,2.23
2017-07-30T20:48:30.666Z,2.30
2017-07-30T20:50:58.133Z,2.50
2017-07-30T20:53:25.603Z,2.90
2017-07-30T20:55:53.104Z,2.33
2017-07-30T20:58:20.554Z,2.07
2017-07-30T21:00:48.020Z,1.83
2017-07-30T21:03:15.489Z,1.50
2017-07-30T21:05:42.979Z,1.63
2017-07-30T21:08:11.522Z,1.70
2017-07-30T21:10:39.000Z,2.30
2017-07-30T21:13:06.473Z,2.30
2017-07-30T21:15:34.007Z,1.30
2017-07-30T21:18:01.471Z,1.30
2017-07-30T21:20:28.928Z,1.90
2017-07-30T21:22:56.401Z,1.57
2017-07-30T21:25:23.856Z,1.27
2017-07-30T21:27:51.346Z,1.73
2017-07-30T21:30:19.669Z,1.93
2017-07-30T21:32:47.121Z,1.57
2017-07-30T21:35:14.615Z,2.00
2017-07-30T21:37:42.073Z,1.80
2017-07-30T21:40:09.520Z,1.63
2017-07-30T21:42:37.009Z,1.80
2017-07-30T21:45:04.463Z,2.17
2017-07-30T21:47:31.916Z,2.37
2017-07-30T21:49:59.406Z,2.50
2017-07-30T21:52:26.857Z,2.17
2017-07-30T21:54:54.309Z,2.43
2017-07-30T21:57:21.786Z,2.80
2017-07-30T21:59:49.242Z,2.50
2017-07-30T22:02:16.710Z,2.80
2017-07-30T22:04:44.164Z,2.60
2017-07-30T22:07:11.626Z,2.87
2017-07-30T22:09:39.078Z,2.80
2017-07-30T22:12:06.566Z,3.53
2017-07-30T22:14:34.019Z,3.50
2017-07-30T22:17:01.465Z,3.80
2017-07-30T22:19:28.954Z,2.90
2017-07-30T22:21:56.410Z,3.10
2017-07-30T22:24:23.861Z,3.43
2017-07-30T22:26:51.346Z,3.40
2017-07-30T22:29:18.874Z,3.30
2017-07-30T22:31:46.374Z,19.57
2017-07-30T22:34:13.830Z,92.27
2017-07-30T22:36:41.985Z,117.47
2017-07-30T22:39:09.490Z,11.60
2017-07-30T22:41:37.705Z,5.80
2017-07-30T22:44:05.162Z,4.63
2017-07-30T22:46:32.679Z,9.00
2017-07-30T22:49:00.127Z,6.10
2017-07-30T22:51:27.573Z,5.73
2017-07-30T22:53:55.066Z,8.80
2017-07-30T22:56:22.526Z,7.63
2017-07-30T22:58:50.001Z,5.50
2017-07-30T23:01:17.487Z,4.10
2017-07-30T23:03:44.966Z,3.77
2017-07-30T23:06:12.457Z,2.83
2017-07-30T23:08:39.898Z,3.33
2017-07-30T23:11:07.353Z,2.30
2017-07-30T23:13:34.841Z,2.87
2017-07-30T23:16:02.318Z,2.90
2017-07-30T23:18:29.779Z,1.90
2017-07-30T23:20:57.274Z,3.10
2017-07-30T23:23:24.734Z,2.17
2017-07-30T23:25:52.189Z,2.33
2017-07-30T23:28:19.721Z,2.20
2017-07-30T23:30:47.202Z,3.00
2017-07-30T23:33:14.688Z,2.30
2017-07-30T23:35:42.135Z,2.57
2017-07-30T23:38:09.583Z,4.27
2017-07-30T23:40:37.058Z,4.73
2017-07-30T23:43:04.509Z,3.10
2017-07-30T23:45:31.993Z,2.83
2017-07-30T23:47:59.456Z,2.60
2017-07-30T23:50:26.909Z,2.63
2017-07-30T23:52:54.389Z,2.67
2017-07-30T23:55:21.845Z,3.80
2017-07-30T23:57:49.301Z,2.50
